sensor_id;sensor_type;location;lat;lon;timestamp;P1;durP1;ratioP1;P2;durP2;ratioP2
40252;SDS011;25972;51.854;4.534;2023-04-24T00:00:10;1.00;;;0.90;;
40252;SDS011;25972;51.854;4.534;2023-04-24T00:02:41;1.27;;;0.82;;
40252;SDS011;25972;51.854;4.534;2023-04-24T00:05:11;0.73;;;0.73;;
40252;SDS011;25972;51.854;4.534;2023-04-24T00:07:39;0.65;;;0.65;;
40252;SDS011;25972;51.854;4.534;2023-04-24T00:10:06;1.65;;;1.30;;
40252;SDS011;25972;51.854;4.534;2023-04-24T00:12:32;1.27;;;1.00;;
40252;SDS011;25972;51.854;4.534;2023-04-24T00:14:58;0.88;;;0.70;;
40252;SDS011;25972;51.854;4.534;2023-04-24T00:17:24;1.52;;;0.75;;
40252;SDS011;25972;51.854;4.534;2023-04-24T00:19:50;0.98;;;0.90;;
40252;SDS011;25972;51.854;4.534;2023-04-24T00:22:17;2.60;;;1.13;;
40252;SDS011;25972;51.854;4.534;2023-04-24T00:24:43;2.00;;;1.17;;
40252;SDS011;25972;51.854;4.534;2023-04-24T00:27:09;4.38;;;1.20;;
40252;SDS011;25972;51.854;4.534;2023-04-24T00:29:34;5.75;;;0.98;;
40252;SDS011;25972;51.854;4.534;2023-04-24T00:32:00;1.63;;;0.88;;
40252;SDS011;25972;51.854;4.534;2023-04-24T00:34:26;2.38;;;1.00;;
40252;SDS011;25972;51.854;4.534;2023-04-24T00:36:52;1.20;;;0.93;;
40252;SDS011;25972;51.854;4.534;2023-04-24T00:39:18;1.90;;;0.95;;
40252;SDS011;25972;51.854;4.534;2023-04-24T00:41:45;1.17;;;0.63;;
40252;SDS011;25972;51.854;4.534;2023-04-24T00:44:11;0.50;;;0.50;;
40252;SDS011;25972;51.854;4.534;2023-04-24T00:46:37;0.55;;;0.52;;
40252;SDS011;25972;51.854;4.534;2023-04-24T00:49:04;1.63;;;1.05;;
40252;SDS011;25972;51.854;4.534;2023-04-24T00:51:31;1.55;;;0.75;;
40252;SDS011;25972;51.854;4.534;2023-04-24T00:53:58;2.17;;;1.17;;
40252;SDS011;25972;51.854;4.534;2023-04-24T00:56:24;0.80;;;0.47;;
40252;SDS011;25972;51.854;4.534;2023-04-24T00:58:50;0.98;;;0.85;;
40252;SDS011;25972;51.854;4.534;2023-04-24T01:01:16;0.50;;;0.50;;
40252;SDS011;25972;51.854;4.534;2023-04-24T01:03:45;0.30;;;0.30;;
40252;SDS011;25972;51.854;4.534;2023-04-24T01:06:11;1.55;;;0.85;;
40252;SDS011;25972;51.854;4.534;2023-04-24T01:08:39;0.77;;;0.70;;
40252;SDS011;25972;51.854;4.534;2023-04-24T01:11:06;3.25;;;0.98;;
40252;SDS011;25972;51.854;4.534;2023-04-24T01:13:32;1.40;;;0.95;;
40252;SDS011;25972;51.854;4.534;2023-04-24T01:15:59;1.83;;;1.05;;
40252;SDS011;25972;51.854;4.534;2023-04-24T01:18:26;1.58;;;1.15;;
40252;SDS011;25972;51.854;4.534;2023-04-24T01:20:53;4.88;;;1.50;;
40252;SDS011;25972;51.854;4.534;2023-04-24T01:23:22;2.95;;;1.60;;
40252;SDS011;25972;51.854;4.534;2023-04-24T01:25:50;3.90;;;1.80;;
40252;SDS011;25972;51.854;4.534;2023-04-24T01:28:17;2.58;;;1.30;;
40252;SDS011;25972;51.854;4.534;2023-04-24T01:30:43;2.78;;;1.60;;
40252;SDS011;25972;51.854;4.534;2023-04-24T01:33:10;4.05;;;1.63;;
40252;SDS011;25972;51.854;4.534;2023-04-24T01:35:36;3.28;;;1.40;;
40252;SDS011;25972;51.854;4.534;2023-04-24T01:38:02;2.97;;;1.40;;
40252;SDS011;25972;51.854;4.534;2023-04-24T01:40:30;2.15;;;1.30;;
40252;SDS011;25972;51.854;4.534;2023-04-24T01:42:58;3.67;;;1.63;;
40252;SDS011;25972;51.854;4.534;2023-04-24T01:45:24;3.33;;;1.40;;
40252;SDS011;25972;51.854;4.534;2023-04-24T01:47:50;3.88;;;1.65;;
40252;SDS011;25972;51.854;4.534;2023-04-24T01:50:17;4.35;;;1.80;;
40252;SDS011;25972;51.854;4.534;2023-04-24T01:52:43;2.78;;;1.63;;
40252;SDS011;25972;51.854;4.534;2023-04-24T01:55:09;5.15;;;1.95;;
40252;SDS011;25972;51.854;4.534;2023-04-24T01:57:37;3.55;;;1.83;;
40252;SDS011;25972;51.854;4.534;2023-04-24T02:00:03;4.72;;;1.70;;
40252;SDS011;25972;51.854;4.534;2023-04-24T02:02:41;2.47;;;1.50;;
40252;SDS011;25972;51.854;4.534;2023-04-24T02:05:07;3.63;;;1.90;;
40252;SDS011;25972;51.854;4.534;2023-04-24T02:07:35;2.95;;;1.33;;
40252;SDS011;25972;51.854;4.534;2023-04-24T02:10:01;4.22;;;1.80;;
40252;SDS011;25972;51.854;4.534;2023-04-24T02:12:29;2.00;;;1.25;;
40252;SDS011;25972;51.854;4.534;2023-04-24T02:14:55;6.03;;;2.40;;
40252;SDS011;25972;51.854;4.534;2023-04-24T02:17:21;1.05;;;0.98;;
40252;SDS011;25972;51.854;4.534;2023-04-24T02:19:47;3.67;;;1.60;;
40252;SDS011;25972;51.854;4.534;2023-04-24T02:22:13;2.70;;;1.55;;
40252;SDS011;25972;51.854;4.534;2023-04-24T02:24:39;3.30;;;1.40;;
40252;SDS011;25972;51.854;4.534;2023-04-24T02:27:05;5.60;;;2.17;;
40252;SDS011;25972;51.854;4.534;2023-04-24T02:29:31;1.95;;;1.17;;
40252;SDS011;25972;51.854;4.534;2023-04-24T02:31:57;2.55;;;1.00;;
40252;SDS011;25972;51.854;4.534;2023-04-24T02:34:23;1.98;;;1.30;;
40252;SDS011;25972;51.854;4.534;2023-04-24T02:36:49;2.22;;;1.00;;
40252;SDS011;25972;51.854;4.534;2023-04-24T02:39:15;2.22;;;1.20;;
40252;SDS011;25972;51.854;4.534;2023-04-24T02:41:43;2.92;;;1.55;;
40252;SDS011;25972;51.854;4.534;2023-04-24T02:44:09;2.15;;;0.90;;
40252;SDS011;25972;51.854;4.534;2023-04-24T02:46:35;1.17;;;0.90;;
40252;SDS011;25972;51.854;4.534;2023-04-24T02:49:01;1.55;;;1.13;;
40252;SDS011;25972;51.854;4.534;2023-04-24T02:51:28;1.10;;;0.55;;
40252;SDS011;25972;51.854;4.534;2023-04-24T02:53:54;1.48;;;0.88;;
40252;SDS011;25972;51.854;4.534;2023-04-24T02:56:20;1.80;;;0.68;;
40252;SDS011;25972;51.854;4.534;2023-04-24T02:58:46;1.35;;;0.98;;
40252;SDS011;25972;51.854;4.534;2023-04-24T03:01:12;0.70;;;0.70;;
40252;SDS011;25972;51.854;4.534;2023-04-24T03:03:38;1.38;;;0.75;;
40252;SDS011;25972;51.854;4.534;2023-04-24T03:06:05;0.85;;;0.77;;
40252;SDS011;25972;51.854;4.534;2023-04-24T03:08:34;0.63;;;0.63;;
40252;SDS011;25972;51.854;4.534;2023-04-24T03:11:00;2.22;;;0.85;;
40252;SDS011;25972;51.854;4.534;2023-04-24T03:13:26;0.60;;;0.60;;
40252;SDS011;25972;51.854;4.534;2023-04-24T03:15:52;0.50;;;0.50;;
40252;SDS011;25972;51.854;4.534;2023-04-24T03:18:19;0.85;;;0.75;;
40252;SDS011;25972;51.854;4.534;2023-04-24T03:20:46;0.75;;;0.60;;
40252;SDS011;25972;51.854;4.534;2023-04-24T03:23:13;0.50;;;0.50;;
40252;SDS011;25972;51.854;4.534;2023-04-24T03:25:39;0.70;;;0.70;;
40252;SDS011;25972;51.854;4.534;2023-04-24T03:28:08;0.82;;;0.77;;
40252;SDS011;25972;51.854;4.534;2023-04-24T03:30:40;0.60;;;0.60;;
40252;SDS011;25972;51.854;4.534;2023-04-24T03:33:07;0.90;;;0.45;;
40252;SDS011;25972;51.854;4.534;2023-04-24T03:35:39;1.95;;;1.00;;
40252;SDS011;25972;51.854;4.534;2023-04-24T03:38:08;2.78;;;1.02;;
40252;SDS011;25972;51.854;4.534;2023-04-24T03:40:40;2.08;;;0.57;;
40252;SDS011;25972;51.854;4.534;2023-04-24T03:43:20;0.50;;;0.50;;
40252;SDS011;25972;51.854;4.534;2023-04-24T03:45:46;0.93;;;0.88;;
40252;SDS011;25972;51.854;4.534;2023-04-24T03:48:13;0.38;;;0.38;;
40252;SDS011;25972;51.854;4.534;2023-04-24T03:50:40;0.65;;;0.55;;
40252;SDS011;25972;51.854;4.534;2023-04-24T03:53:09;1.25;;;0.90;;
40252;SDS011;25972;51.854;4.534;2023-04-24T03:55:38;0.65;;;0.57;;
40252;SDS011;25972;51.854;4.534;2023-04-24T03:58:04;1.15;;;0.70;;
40252;SDS011;25972;51.854;4.534;2023-04-24T04:00:31;0.63;;;0.52;;
40252;SDS011;25972;51.854;4.534;2023-04-24T04:03:17;4.13;;;0.80;;
40252;SDS011;25972;51.854;4.534;2023-04-24T04:05:43;0.98;;;0.63;;
40252;SDS011;25972;51.854;4.534;2023-04-24T04:08:08;0.75;;;0.50;;
40252;SDS011;25972;51.854;4.534;2023-04-24T04:10:34;0.82;;;0.63;;
40252;SDS011;25972;51.854;4.534;2023-04-24T04:13:03;0.95;;;0.68;;
40252;SDS011;25972;51.854;4.534;2023-04-24T04:15:29;0.45;;;0.40;;
40252;SDS011;25972;51.854;4.534;2023-04-24T04:17:55;1.17;;;0.80;;
40252;SDS011;25972;51.854;4.534;2023-04-24T04:20:22;0.98;;;0.70;;
40252;SDS011;25972;51.854;4.534;2023-04-24T04:22:48;0.47;;;0.47;;
40252;SDS011;25972;51.854;4.534;2023-04-24T04:25:20;0.95;;;0.60;;
40252;SDS011;25972;51.854;4.534;2023-04-24T04:27:46;1.70;;;0.60;;
40252;SDS011;25972;51.854;4.534;2023-04-24T04:30:13;1.23;;;0.63;;
40252;SDS011;25972;51.854;4.534;2023-04-24T04:32:48;1.40;;;0.70;;
40252;SDS011;25972;51.854;4.534;2023-04-24T04:35:14;3.55;;;1.55;;
40252;SDS011;25972;51.854;4.534;2023-04-24T04:37:40;2.40;;;0.88;;
40252;SDS011;25972;51.854;4.534;2023-04-24T04:40:36;6.45;;;1.27;;
40252;SDS011;25972;51.854;4.534;2023-04-24T04:43:04;1.08;;;0.93;;
40252;SDS011;25972;51.854;4.534;2023-04-24T04:45:37;4.88;;;1.77;;
40252;SDS011;25972;51.854;4.534;2023-04-24T04:48:34;3.83;;;0.82;;
40252;SDS011;25972;51.854;4.534;2023-04-24T04:51:03;1.80;;;1.15;;
40252;SDS011;25972;51.854;4.534;2023-04-24T04:53:30;2.78;;;0.73;;
40252;SDS011;25972;51.854;4.534;2023-04-24T04:55:55;0.77;;;0.77;;
40252;SDS011;25972;51.854;4.534;2023-04-24T04:58:26;2.15;;;1.17;;
40252;SDS011;25972;51.854;4.534;2023-04-24T05:00:56;1.52;;;1.08;;
40252;SDS011;25972;51.854;4.534;2023-04-24T05:03:35;2.20;;;1.02;;
40252;SDS011;25972;51.854;4.534;2023-04-24T05:06:05;4.25;;;1.90;;
40252;SDS011;25972;51.854;4.534;2023-04-24T05:08:35;3.38;;;1.88;;
40252;SDS011;25972;51.854;4.534;2023-04-24T05:11:01;4.80;;;1.77;;
40252;SDS011;25972;51.854;4.534;2023-04-24T05:13:29;1.77;;;1.40;;
40252;SDS011;25972;51.854;4.534;2023-04-24T05:15:55;5.57;;;2.20;;
40252;SDS011;25972;51.854;4.534;2023-04-24T05:18:21;5.20;;;2.13;;
40252;SDS011;25972;51.854;4.534;2023-04-24T05:20:47;3.67;;;0.98;;
40252;SDS011;25972;51.854;4.534;2023-04-24T05:23:13;3.80;;;2.05;;
40252;SDS011;25972;51.854;4.534;2023-04-24T05:25:41;2.17;;;1.10;;
40252;SDS011;25972;51.854;4.534;2023-04-24T05:28:11;6.00;;;2.28;;
40252;SDS011;25972;51.854;4.534;2023-04-24T05:30:37;4.80;;;2.13;;
40252;SDS011;25972;51.854;4.534;2023-04-24T05:33:03;3.90;;;1.70;;
40252;SDS011;25972;51.854;4.534;2023-04-24T05:35:31;6.45;;;2.20;;
40252;SDS011;25972;51.854;4.534;2023-04-24T05:37:57;9.65;;;2.60;;
40252;SDS011;25972;51.854;4.534;2023-04-24T05:40:23;7.75;;;2.72;;
40252;SDS011;25972;51.854;4.534;2023-04-24T05:42:50;4.82;;;2.30;;
40252;SDS011;25972;51.854;4.534;2023-04-24T05:45:15;8.50;;;3.03;;
40252;SDS011;25972;51.854;4.534;2023-04-24T05:47:43;5.57;;;2.13;;
40252;SDS011;25972;51.854;4.534;2023-04-24T05:50:10;6.57;;;3.03;;
40252;SDS011;25972;51.854;4.534;2023-04-24T05:52:36;11.73;;;2.80;;
40252;SDS011;25972;51.854;4.534;2023-04-24T05:55:08;7.38;;;3.05;;
40252;SDS011;25972;51.854;4.534;2023-04-24T05:57:36;4.68;;;1.77;;
40252;SDS011;25972;51.854;4.534;2023-04-24T06:00:03;2.95;;;1.58;;
40252;SDS011;25972;51.854;4.534;2023-04-24T06:02:38;3.08;;;1.17;;
40252;SDS011;25972;51.854;4.534;2023-04-24T06:05:07;6.70;;;2.78;;
40252;SDS011;25972;51.854;4.534;2023-04-24T06:07:33;6.65;;;2.70;;
40252;SDS011;25972;51.854;4.534;2023-04-24T06:10:02;7.57;;;3.25;;
40252;SDS011;25972;51.854;4.534;2023-04-24T06:12:33;9.02;;;2.70;;
40252;SDS011;25972;51.854;4.534;2023-04-24T06:15:05;6.55;;;1.80;;
40252;SDS011;25972;51.854;4.534;2023-04-24T06:17:54;4.82;;;1.35;;
40252;SDS011;25972;51.854;4.534;2023-04-24T06:20:21;2.05;;;1.60;;
40252;SDS011;25972;51.854;4.534;2023-04-24T06:22:46;2.88;;;1.52;;
40252;SDS011;25972;51.854;4.534;2023-04-24T06:25:12;4.55;;;1.98;;
40252;SDS011;25972;51.854;4.534;2023-04-24T06:27:38;10.07;;;1.83;;
40252;SDS011;25972;51.854;4.534;2023-04-24T06:30:04;2.80;;;1.17;;
40252;SDS011;25972;51.854;4.534;2023-04-24T06:32:32;5.53;;;1.70;;
40252;SDS011;25972;51.854;4.534;2023-04-24T06:34:58;6.60;;;2.15;;
40252;SDS011;25972;51.854;4.534;2023-04-24T06:37:24;4.43;;;1.80;;
40252;SDS011;25972;51.854;4.534;2023-04-24T06:39:50;5.78;;;2.00;;
40252;SDS011;25972;51.854;4.534;2023-04-24T06:42:16;19.17;;;1.88;;
40252;SDS011;25972;51.854;4.534;2023-04-24T06:44:43;5.80;;;1.67;;
40252;SDS011;25972;51.854;4.534;2023-04-24T06:47:09;5.13;;;2.17;;
40252;SDS011;25972;51.854;4.534;2023-04-24T06:49:37;5.95;;;2.20;;
40252;SDS011;25972;51.854;4.534;2023-04-24T06:52:03;4.60;;;1.65;;
40252;SDS011;25972;51.854;4.534;2023-04-24T06:54:30;5.25;;;2.15;;
40252;SDS011;25972;51.854;4.534;2023-04-24T06:56:56;4.63;;;1.73;;
40252;SDS011;25972;51.854;4.534;2023-04-24T06:59:28;4.77;;;2.00;;
40252;SDS011;25972;51.854;4.534;2023-04-24T07:01:55;3.60;;;1.33;;
40252;SDS011;25972;51.854;4.534;2023-04-24T07:04:21;2.28;;;1.17;;
40252;SDS011;25972;51.854;4.534;2023-04-24T07:06:50;9.70;;;1.85;;
40252;SDS011;25972;51.854;4.534;2023-04-24T07:09:16;7.53;;;1.77;;
40252;SDS011;25972;51.854;4.534;2023-04-24T07:11:43;4.55;;;1.33;;
40252;SDS011;25972;51.854;4.534;2023-04-24T07:14:12;5.13;;;0.98;;
40252;SDS011;25972;51.854;4.534;2023-04-24T07:16:38;9.32;;;1.20;;
40252;SDS011;25972;51.854;4.534;2023-04-24T07:19:04;7.47;;;1.95;;
40252;SDS011;25972;51.854;4.534;2023-04-24T07:21:30;3.58;;;1.25;;
40252;SDS011;25972;51.854;4.534;2023-04-24T07:23:57;1.52;;;1.02;;
40252;SDS011;25972;51.854;4.534;2023-04-24T07:26:23;4.65;;;1.83;;
40252;SDS011;25972;51.854;4.534;2023-04-24T07:28:50;7.25;;;1.48;;
40252;SDS011;25972;51.854;4.534;2023-04-24T07:31:15;3.30;;;2.53;;
40252;SDS011;25972;51.854;4.534;2023-04-24T07:33:41;2.97;;;1.20;;
40252;SDS011;25972;51.854;4.534;2023-04-24T07:36:07;5.15;;;1.15;;
40252;SDS011;25972;51.854;4.534;2023-04-24T07:38:33;2.55;;;0.93;;
40252;SDS011;25972;51.854;4.534;2023-04-24T07:40:59;2.47;;;1.27;;
40252;SDS011;25972;51.854;4.534;2023-04-24T07:43:24;7.03;;;1.48;;
40252;SDS011;25972;51.854;4.534;2023-04-24T07:45:52;1.67;;;0.75;;
40252;SDS011;25972;51.854;4.534;2023-04-24T07:48:17;3.00;;;1.20;;
40252;SDS011;25972;51.854;4.534;2023-04-24T07:50:46;1.83;;;0.98;;
40252;SDS011;25972;51.854;4.534;2023-04-24T07:53:12;2.20;;;1.30;;
40252;SDS011;25972;51.854;4.534;2023-04-24T07:55:38;1.75;;;0.80;;
40252;SDS011;25972;51.854;4.534;2023-04-24T07:58:03;7.32;;;1.33;;
40252;SDS011;25972;51.854;4.534;2023-04-24T08:00:29;6.00;;;1.30;;
40252;SDS011;25972;51.854;4.534;2023-04-24T08:02:55;10.98;;;1.25;;
40252;SDS011;25972;51.854;4.534;2023-04-24T08:05:21;2.17;;;1.23;;
40252;SDS011;25972;51.854;4.534;2023-04-24T08:07:47;3.47;;;0.90;;
40252;SDS011;25972;51.854;4.534;2023-04-24T08:10:15;4.30;;;0.63;;
40252;SDS011;25972;51.854;4.534;2023-04-24T08:12:41;5.63;;;1.45;;
40252;SDS011;25972;51.854;4.534;2023-04-24T08:15:07;3.47;;;1.08;;
40252;SDS011;25972;51.854;4.534;2023-04-24T08:17:34;4.20;;;1.98;;
40252;SDS011;25972;51.854;4.534;2023-04-24T08:20:00;0.57;;;0.57;;
40252;SDS011;25972;51.854;4.534;2023-04-24T08:22:27;3.17;;;1.13;;
40252;SDS011;25972;51.854;4.534;2023-04-24T08:24:54;5.07;;;1.15;;
40252;SDS011;25972;51.854;4.534;2023-04-24T08:27:19;5.00;;;0.80;;
40252;SDS011;25972;51.854;4.534;2023-04-24T08:29:45;3.95;;;1.10;;
40252;SDS011;25972;51.854;4.534;2023-04-24T08:32:11;3.85;;;1.00;;
40252;SDS011;25972;51.854;4.534;2023-04-24T08:34:37;3.28;;;0.82;;
40252;SDS011;25972;51.854;4.534;2023-04-24T08:37:03;4.50;;;1.23;;
40252;SDS011;25972;51.854;4.534;2023-04-24T08:39:29;1.10;;;0.82;;
40252;SDS011;25972;51.854;4.534;2023-04-24T08:41:55;4.75;;;0.88;;
40252;SDS011;25972;51.854;4.534;2023-04-24T08:44:21;0.93;;;0.47;;
40252;SDS011;25972;51.854;4.534;2023-04-24T08:46:48;3.30;;;0.98;;
40252;SDS011;25972;51.854;4.534;2023-04-24T08:49:14;1.92;;;0.60;;
40252;SDS011;25972;51.854;4.534;2023-04-24T08:51:43;1.00;;;0.70;;
40252;SDS011;25972;51.854;4.534;2023-04-24T08:54:11;5.63;;;1.52;;
40252;SDS011;25972;51.854;4.534;2023-04-24T08:56:38;2.65;;;1.50;;
40252;SDS011;25972;51.854;4.534;2023-04-24T08:59:06;4.25;;;0.60;;
40252;SDS011;25972;51.854;4.534;2023-04-24T09:01:32;2.45;;;0.63;;
40252;SDS011;25972;51.854;4.534;2023-04-24T09:04:01;1.58;;;1.23;;
40252;SDS011;25972;51.854;4.534;2023-04-24T09:06:28;2.92;;;0.73;;
40252;SDS011;25972;51.854;4.534;2023-04-24T09:08:55;2.42;;;0.90;;
40252;SDS011;25972;51.854;4.534;2023-04-24T09:11:25;2.10;;;0.50;;
40252;SDS011;25972;51.854;4.534;2023-04-24T09:13:53;0.80;;;0.68;;
40252;SDS011;25972;51.854;4.534;2023-04-24T09:16:20;2.05;;;0.82;;
40252;SDS011;25972;51.854;4.534;2023-04-24T09:18:45;1.15;;;0.55;;
40252;SDS011;25972;51.854;4.534;2023-04-24T09:21:11;0.73;;;0.47;;
40252;SDS011;25972;51.854;4.534;2023-04-24T09:23:38;0.95;;;0.57;;
40252;SDS011;25972;51.854;4.534;2023-04-24T09:26:04;1.48;;;0.50;;
40252;SDS011;25972;51.854;4.534;2023-04-24T09:28:31;0.80;;;0.40;;
40252;SDS011;25972;51.854;4.534;2023-04-24T09:31:13;0.13;;;0.13;;
40252;SDS011;25972;51.854;4.534;2023-04-24T09:34:02;0.63;;;0.40;;
40252;SDS011;25972;51.854;4.534;2023-04-24T09:36:31;0.60;;;0.45;;
40252;SDS011;25972;51.854;4.534;2023-04-24T09:38:59;0.13;;;0.13;;
40252;SDS011;25972;51.854;4.534;2023-04-24T09:41:26;0.55;;;0.30;;
40252;SDS011;25972;51.854;4.534;2023-04-24T09:43:54;1.38;;;0.47;;
40252;SDS011;25972;51.854;4.534;2023-04-24T09:46:21;0.30;;;0.30;;
40252;SDS011;25972;51.854;4.534;2023-04-24T09:48:54;2.17;;;0.38;;
40252;SDS011;25972;51.854;4.534;2023-04-24T09:51:32;0.82;;;0.30;;
40252;SDS011;25972;51.854;4.534;2023-04-24T09:54:01;0.65;;;0.43;;
40252;SDS011;25972;51.854;4.534;2023-04-24T09:56:26;0.10;;;0.10;;
40252;SDS011;25972;51.854;4.534;2023-04-24T09:58:53;1.85;;;0.57;;
40252;SDS011;25972;51.854;4.534;2023-04-24T10:01:31;1.20;;;0.55;;
40252;SDS011;25972;51.854;4.534;2023-04-24T10:03:58;0.77;;;0.47;;
40252;SDS011;25972;51.854;4.534;2023-04-24T10:06:29;0.40;;;0.40;;
40252;SDS011;25972;51.854;4.534;2023-04-24T10:08:59;0.60;;;0.57;;
40252;SDS011;25972;51.854;4.534;2023-04-24T10:11:28;1.80;;;0.43;;
40252;SDS011;25972;51.854;4.534;2023-04-24T10:13:54;1.25;;;0.55;;
40252;SDS011;25972;51.854;4.534;2023-04-24T10:16:23;0.28;;;0.28;;
40252;SDS011;25972;51.854;4.534;2023-04-24T10:18:49;1.45;;;0.63;;
40252;SDS011;25972;51.854;4.534;2023-04-24T10:21:15;3.00;;;0.82;;
40252;SDS011;25972;51.854;4.534;2023-04-24T10:23:42;0.60;;;0.40;;
40252;SDS011;25972;51.854;4.534;2023-04-24T10:26:09;3.55;;;0.40;;
40252;SDS011;25972;51.854;4.534;2023-04-24T10:28:36;1.15;;;0.50;;
40252;SDS011;25972;51.854;4.534;2023-04-24T10:31:02;1.88;;;0.63;;
40252;SDS011;25972;51.854;4.534;2023-04-24T10:33:28;4.88;;;1.05;;
40252;SDS011;25972;51.854;4.534;2023-04-24T10:35:55;2.15;;;0.35;;
40252;SDS011;25972;51.854;4.534;2023-04-24T10:38:26;3.45;;;0.98;;
40252;SDS011;25972;51.854;4.534;2023-04-24T10:40:57;1.35;;;0.40;;
40252;SDS011;25972;51.854;4.534;2023-04-24T10:43:33;3.92;;;0.65;;
40252;SDS011;25972;51.854;4.534;2023-04-24T10:46:02;3.63;;;1.02;;
40252;SDS011;25972;51.854;4.534;2023-04-24T10:48:30;0.65;;;0.35;;
40252;SDS011;25972;51.854;4.534;2023-04-24T10:50:57;1.40;;;0.47;;
40252;SDS011;25972;51.854;4.534;2023-04-24T10:53:24;2.13;;;0.82;;
40252;SDS011;25972;51.854;4.534;2023-04-24T10:55:58;0.50;;;0.50;;
40252;SDS011;25972;51.854;4.534;2023-04-24T11:01:44;1.65;;;0.57;;
40252;SDS011;25972;51.854;4.534;2023-04-24T11:04:03;2.25;;;0.82;;
40252;SDS011;25972;51.854;4.534;2023-04-24T11:09:04;0.38;;;0.38;;
40252;SDS011;25972;51.854;4.534;2023-04-24T11:11:35;0.55;;;0.22;;
40252;SDS011;25972;51.854;4.534;2023-04-24T11:14:06;0.30;;;0.25;;
40252;SDS011;25972;51.854;4.534;2023-04-24T11:16:33;0.55;;;0.32;;
40252;SDS011;25972;51.854;4.534;2023-04-24T11:19:17;0.88;;;0.40;;
40252;SDS011;25972;51.854;4.534;2023-04-24T11:24:37;2.22;;;0.95;;
40252;SDS011;25972;51.854;4.534;2023-04-24T11:27:16;2.58;;;1.67;;
40252;SDS011;25972;51.854;4.534;2023-04-24T11:29:48;0.80;;;0.68;;
40252;SDS011;25972;51.854;4.534;2023-04-24T11:32:19;2.65;;;0.50;;
40252;SDS011;25972;51.854;4.534;2023-04-24T11:34:51;0.88;;;0.50;;
40252;SDS011;25972;51.854;4.534;2023-04-24T11:37:21;1.50;;;0.90;;
40252;SDS011;25972;51.854;4.534;2023-04-24T11:39:53;0.93;;;0.55;;
40252;SDS011;25972;51.854;4.534;2023-04-24T11:42:20;1.63;;;0.43;;
40252;SDS011;25972;51.854;4.534;2023-04-24T11:44:48;3.30;;;0.45;;
40252;SDS011;25972;51.854;4.534;2023-04-24T11:47:15;3.38;;;0.90;;
40252;SDS011;25972;51.854;4.534;2023-04-24T11:49:41;2.60;;;0.80;;
40252;SDS011;25972;51.854;4.534;2023-04-24T11:52:06;1.27;;;0.45;;
40252;SDS011;25972;51.854;4.534;2023-04-24T11:54:32;3.92;;;0.60;;
40252;SDS011;25972;51.854;4.534;2023-04-24T11:56:58;1.17;;;0.60;;
40252;SDS011;25972;51.854;4.534;2023-04-24T11:59:24;1.38;;;0.70;;
40252;SDS011;25972;51.854;4.534;2023-04-24T12:01:50;0.47;;;0.47;;
40252;SDS011;25972;51.854;4.534;2023-04-24T12:04:17;1.60;;;0.90;;
40252;SDS011;25972;51.854;4.534;2023-04-24T12:07:00;1.95;;;1.02;;
40252;SDS011;25972;51.854;4.534;2023-04-24T12:09:26;3.03;;;0.80;;
40252;SDS011;25972;51.854;4.534;2023-04-24T12:11:56;1.27;;;0.80;;
40252;SDS011;25972;51.854;4.534;2023-04-24T12:14:22;3.15;;;0.80;;
40252;SDS011;25972;51.854;4.534;2023-04-24T12:16:49;3.60;;;0.82;;
40252;SDS011;25972;51.854;4.534;2023-04-24T12:19:21;1.75;;;0.90;;
40252;SDS011;25972;51.854;4.534;2023-04-24T12:22:04;0.75;;;0.70;;
40252;SDS011;25972;51.854;4.534;2023-04-24T12:24:31;0.80;;;0.30;;
40252;SDS011;25972;51.854;4.534;2023-04-24T12:26:57;0.40;;;0.35;;
40252;SDS011;25972;51.854;4.534;2023-04-24T12:29:23;1.60;;;0.47;;
40252;SDS011;25972;51.854;4.534;2023-04-24T12:31:50;0.85;;;0.60;;
40252;SDS011;25972;51.854;4.534;2023-04-24T12:34:20;1.35;;;0.73;;
40252;SDS011;25972;51.854;4.534;2023-04-24T12:36:47;1.27;;;0.65;;
40252;SDS011;25972;51.854;4.534;2023-04-24T12:39:20;4.10;;;1.10;;
40252;SDS011;25972;51.854;4.534;2023-04-24T12:41:50;1.38;;;0.80;;
40252;SDS011;25972;51.854;4.534;2023-04-24T12:46:54;1.65;;;0.68;;
40252;SDS011;25972;51.854;4.534;2023-04-24T12:49:19;1.17;;;0.90;;
40252;SDS011;25972;51.854;4.534;2023-04-24T12:51:45;5.20;;;1.20;;
40252;SDS011;25972;51.854;4.534;2023-04-24T12:54:11;2.72;;;0.82;;
40252;SDS011;25972;51.854;4.534;2023-04-24T12:56:37;1.15;;;0.88;;
40252;SDS011;25972;51.854;4.534;2023-04-24T12:59:04;1.33;;;0.80;;
40252;SDS011;25972;51.854;4.534;2023-04-24T13:01:30;3.05;;;1.00;;
40252;SDS011;25972;51.854;4.534;2023-04-24T13:03:56;2.90;;;0.93;;
40252;SDS011;25972;51.854;4.534;2023-04-24T13:06:22;1.70;;;0.75;;
40252;SDS011;25972;51.854;4.534;2023-04-24T13:08:48;2.08;;;0.77;;
40252;SDS011;25972;51.854;4.534;2023-04-24T13:11:13;3.53;;;0.80;;
40252;SDS011;25972;51.854;4.534;2023-04-24T13:13:39;3.28;;;1.25;;
40252;SDS011;25972;51.854;4.534;2023-04-24T13:16:05;1.42;;;0.85;;
40252;SDS011;25972;51.854;4.534;2023-04-24T13:18:31;4.50;;;1.27;;
40252;SDS011;25972;51.854;4.534;2023-04-24T13:20:57;4.53;;;1.10;;
40252;SDS011;25972;51.854;4.534;2023-04-24T13:23:23;1.98;;;0.88;;
40252;SDS011;25972;51.854;4.534;2023-04-24T13:25:48;2.65;;;0.80;;
40252;SDS011;25972;51.854;4.534;2023-04-24T13:28:14;1.95;;;1.10;;
40252;SDS011;25972;51.854;4.534;2023-04-24T13:30:40;3.38;;;0.88;;
40252;SDS011;25972;51.854;4.534;2023-04-24T13:33:06;1.60;;;0.73;;
40252;SDS011;25972;51.854;4.534;2023-04-24T13:35:32;3.97;;;1.08;;
40252;SDS011;25972;51.854;4.534;2023-04-24T13:37:58;1.35;;;0.70;;
40252;SDS011;25972;51.854;4.534;2023-04-24T13:40:26;7.63;;;1.25;;
40252;SDS011;25972;51.854;4.534;2023-04-24T13:42:52;1.27;;;0.75;;
40252;SDS011;25972;51.854;4.534;2023-04-24T13:45:18;3.92;;;1.20;;
40252;SDS011;25972;51.854;4.534;2023-04-24T13:47:44;3.83;;;1.30;;
40252;SDS011;25972;51.854;4.534;2023-04-24T13:50:10;1.40;;;0.95;;
40252;SDS011;25972;51.854;4.534;2023-04-24T13:52:36;3.03;;;1.00;;
40252;SDS011;25972;51.854;4.534;2023-04-24T13:55:02;2.13;;;1.13;;
40252;SDS011;25972;51.854;4.534;2023-04-24T13:57:28;8.43;;;2.05;;
40252;SDS011;25972;51.854;4.534;2023-04-24T13:59:53;5.80;;;1.95;;
40252;SDS011;25972;51.854;4.534;2023-04-24T14:02:21;2.17;;;0.90;;
40252;SDS011;25972;51.854;4.534;2023-04-24T14:04:46;5.10;;;1.38;;
40252;SDS011;25972;51.854;4.534;2023-04-24T14:07:13;7.30;;;1.55;;
40252;SDS011;25972;51.854;4.534;2023-04-24T14:09:39;1.48;;;1.13;;
40252;SDS011;25972;51.854;4.534;2023-04-24T14:12:05;1.50;;;1.10;;
40252;SDS011;25972;51.854;4.534;2023-04-24T14:14:32;1.17;;;0.60;;
40252;SDS011;25972;51.854;4.534;2023-04-24T14:16:57;2.03;;;1.02;;
40252;SDS011;25972;51.854;4.534;2023-04-24T14:19:23;0.50;;;0.50;;
40252;SDS011;25972;51.854;4.534;2023-04-24T14:21:49;3.90;;;0.73;;
40252;SDS011;25972;51.854;4.534;2023-04-24T14:24:15;1.45;;;0.93;;
40252;SDS011;25972;51.854;4.534;2023-04-24T14:26:41;3.10;;;1.38;;
40252;SDS011;25972;51.854;4.534;2023-04-24T14:29:08;4.88;;;1.70;;
40252;SDS011;25972;51.854;4.534;2023-04-24T14:31:34;4.43;;;1.50;;
40252;SDS011;25972;51.854;4.534;2023-04-24T14:33:59;6.18;;;1.65;;
40252;SDS011;25972;51.854;4.534;2023-04-24T14:36:25;4.85;;;1.48;;
40252;SDS011;25972;51.854;4.534;2023-04-24T14:38:51;2.55;;;1.35;;
40252;SDS011;25972;51.854;4.534;2023-04-24T14:41:17;3.83;;;1.45;;
40252;SDS011;25972;51.854;4.534;2023-04-24T14:43:43;4.28;;;1.65;;
40252;SDS011;25972;51.854;4.534;2023-04-24T14:46:10;6.78;;;1.75;;
40252;SDS011;25972;51.854;4.534;2023-04-24T14:48:36;4.70;;;1.42;;
40252;SDS011;25972;51.854;4.534;2023-04-24T14:51:01;6.38;;;1.45;;
40252;SDS011;25972;51.854;4.534;2023-04-24T14:53:27;5.85;;;1.60;;
40252;SDS011;25972;51.854;4.534;2023-04-24T14:55:53;5.38;;;1.95;;
40252;SDS011;25972;51.854;4.534;2023-04-24T14:58:19;3.85;;;1.30;;
40252;SDS011;25972;51.854;4.534;2023-04-24T15:00:45;4.10;;;1.25;;